createdAt,value
2022-09-06T00:01:15.280Z,16.25
2022-09-06T00:03:42.966Z,16.21
2022-09-06T00:06:17.454Z,16.19
2022-09-06T00:08:47.062Z,16.12
2022-09-06T00:11:15.749Z,16.07
2022-09-06T00:13:43.706Z,16.03
2022-09-06T00:16:16.347Z,16.02
2022-09-06T00:18:44.675Z,15.95
2022-09-06T00:21:27.781Z,15.92
2022-09-06T00:23:55.458Z,15.88
2022-09-06T00:26:23.662Z,15.82
2022-09-06T00:28:50.973Z,15.76
2022-09-06T00:31:25.590Z,15.75
2022-09-06T00:33:53.671Z,15.72
2022-09-06T00:36:22.462Z,15.70
2022-09-06T00:38:50.085Z,15.69
2022-09-06T00:41:17.858Z,15.65
2022-09-06T00:43:45.435Z,15.65
2022-09-06T00:46:19.391Z,15.59
2022-09-06T00:48:53.695Z,15.53
2022-09-06T00:51:22.968Z,15.52
2022-09-06T00:53:51.742Z,15.52
2022-09-06T00:56:19.221Z,15.49
2022-09-06T00:58:49.162Z,15.46
2022-09-06T01:01:16.473Z,15.43
2022-09-06T01:03:43.991Z,15.41
2022-09-06T01:06:32.062Z,15.37
2022-09-06T01:09:48.470Z,15.34
2022-09-06T01:12:24.374Z,15.22
2022-09-06T01:15:19.977Z,15.24
2022-09-06T01:18:14.494Z,15.22
2022-09-06T01:25:39.782Z,15.07
2022-09-06T01:36:05.522Z,14.98
2022-09-06T01:42:31.439Z,14.94
2022-09-06T01:45:47.107Z,14.93
2022-09-06T02:03:41.909Z,14.72
2022-09-06T02:09:56.217Z,14.58
2022-09-06T02:12:28.383Z,14.64
2022-09-06T02:19:19.262Z,14.56
2022-09-06T02:21:48.463Z,14.57
2022-09-06T02:24:40.325Z,14.53
2022-09-06T02:27:08.691Z,14.54
2022-09-06T02:29:36.413Z,14.52
2022-09-06T02:32:26.442Z,14.51
2022-09-06T02:34:57.219Z,14.49
2022-09-06T02:37:26.052Z,14.46
2022-09-06T02:39:55.661Z,14.48
2022-09-06T02:42:25.049Z,14.50
2022-09-06T02:44:52.342Z,14.45
2022-09-06T02:55:28.955Z,14.26
2022-09-06T02:57:56.208Z,14.29
2022-09-06T03:00:23.430Z,14.31
2022-09-06T03:02:50.726Z,14.21
2022-09-06T03:05:18.067Z,14.28
2022-09-06T03:07:45.273Z,14.29
2022-09-06T03:10:13.547Z,14.27
2022-09-06T03:12:43.688Z,14.24
2022-09-06T03:15:12.654Z,14.24
2022-09-06T03:17:40.564Z,14.22
2022-09-06T03:24:08.127Z,14.08
2022-09-06T03:26:35.304Z,14.06
2022-09-06T03:29:02.466Z,14.05
2022-09-06T03:35:40.548Z,13.95
2022-09-06T03:38:08.409Z,13.95
2022-09-06T03:40:35.901Z,13.95
2022-09-06T03:43:03.502Z,13.96
2022-09-06T03:45:31.129Z,13.94
2022-09-06T03:47:58.762Z,13.90
2022-09-06T03:50:26.254Z,13.90
2022-09-06T03:52:53.741Z,13.90
2022-09-06T03:55:21.260Z,13.86
2022-09-06T03:57:48.771Z,13.89
2022-09-06T04:00:16.816Z,13.88
2022-09-06T04:02:44.410Z,13.88
2022-09-06T04:05:12.111Z,13.91
2022-09-06T04:07:39.942Z,13.90
2022-09-06T04:10:07.982Z,13.90
2022-09-06T04:12:35.572Z,13.88
2022-09-06T04:15:03.522Z,13.87
2022-09-06T04:17:31.111Z,13.86
2022-09-06T04:19:58.568Z,13.78
2022-09-06T04:22:26.248Z,13.78
2022-09-06T04:24:53.777Z,13.77
2022-09-06T04:27:21.406Z,13.77
2022-09-06T04:29:48.996Z,13.73
2022-09-06T04:32:16.182Z,13.67
2022-09-06T04:34:43.403Z,13.67
2022-09-06T04:37:10.665Z,13.64
2022-09-06T04:39:37.912Z,13.64
2022-09-06T04:42:05.471Z,13.63
2022-09-06T04:44:32.652Z,13.65
2022-09-06T04:47:09.466Z,13.62
2022-09-06T04:49:36.940Z,13.59
2022-09-06T04:52:04.366Z,13.57
2022-09-06T04:54:31.794Z,13.43
2022-09-06T05:00:58.769Z,13.36
2022-09-06T05:03:26.034Z,13.40
2022-09-06T05:19:12.071Z,13.27
2022-09-06T05:21:39.362Z,13.24
2022-09-06T05:24:06.676Z,13.28
2022-09-06T05:30:44.223Z,13.26
2022-09-06T05:37:34.164Z,13.26
2022-09-06T05:44:10.924Z,13.25
2022-09-06T05:46:46.061Z,13.31
2022-09-06T05:49:14.097Z,13.34
2022-09-06T05:51:41.788Z,13.37
2022-09-06T05:54:11.758Z,13.42
2022-09-06T05:56:39.071Z,13.45
2022-09-06T05:59:58.044Z,13.48
2022-09-06T06:10:38.475Z,13.71
2022-09-06T06:17:56.412Z,14.01
2022-09-06T06:24:33.247Z,14.25
2022-09-06T06:27:00.503Z,14.38
2022-09-06T06:29:27.788Z,14.47
2022-09-06T06:41:12.812Z,14.78
2022-09-06T06:47:39.503Z,15.02
2022-09-06T06:50:07.225Z,15.14
2022-09-06T06:52:34.397Z,15.27
2022-09-06T06:55:05.159Z,15.38
2022-09-06T07:01:35.767Z,15.67
2022-09-06T07:04:04.514Z,15.80
2022-09-06T07:12:20.275Z,16.09
2022-09-06T07:15:38.600Z,16.20
2022-09-06T07:18:05.845Z,16.30
2022-09-06T07:21:41.365Z,16.43
2022-09-06T07:24:09.379Z,16.56
2022-09-06T07:26:39.813Z,16.69
2022-09-06T07:29:08.484Z,16.76
2022-09-06T07:36:00.011Z,17.23
2022-09-06T07:38:29.365Z,17.41
2022-09-06T07:45:17.386Z,17.68
2022-09-06T07:54:49.643Z,17.91
2022-09-06T07:57:17.028Z,17.97
2022-09-06T08:03:24.945Z,18.00
2022-09-06T08:13:43.419Z,18.19
2022-09-06T08:16:13.734Z,18.27
2022-09-06T08:19:39.461Z,18.36
2022-09-06T08:22:06.661Z,18.41
2022-09-06T08:24:33.873Z,18.50
2022-09-06T08:31:15.770Z,18.64
2022-09-06T08:33:44.496Z,18.69
2022-09-06T08:36:12.285Z,18.74
2022-09-06T08:38:39.683Z,18.80
2022-09-06T08:46:04.178Z,18.93
2022-09-06T08:53:17.872Z,19.09
2022-09-06T08:56:08.861Z,19.15
2022-09-06T08:58:44.934Z,19.23
2022-09-06T09:05:38.661Z,19.44
2022-09-06T09:12:22.462Z,19.52
2022-09-06T09:14:58.577Z,19.56
2022-09-06T09:17:32.593Z,19.61
2022-09-06T09:24:13.177Z,19.64
2022-09-06T09:27:06.749Z,19.69
2022-09-06T09:39:38.438Z,19.86
2022-09-06T09:42:07.819Z,19.89
2022-09-06T09:44:36.726Z,19.97
2022-09-06T09:47:39.833Z,20.00
2022-09-06T09:54:11.157Z,20.11
2022-09-06T09:56:51.424Z,20.21
2022-09-06T09:59:30.115Z,20.34
2022-09-06T10:02:02.115Z,20.44
2022-09-06T10:04:50.176Z,20.53
2022-09-06T10:07:23.814Z,20.66
2022-09-06T10:10:28.984Z,20.75
2022-09-06T10:13:21.811Z,20.88
2022-09-06T10:15:52.586Z,21.00
2022-09-06T10:18:44.426Z,21.21
2022-09-06T10:22:12.703Z,21.56
2022-09-06T10:25:25.087Z,22.14
2022-09-06T10:32:30.388Z,23.95
2022-09-06T10:35:27.906Z,25.06
2022-09-06T10:42:33.828Z,26.61
2022-09-06T10:45:12.898Z,27.21
2022-09-06T10:52:04.895Z,26.70
2022-09-06T10:54:37.988Z,26.17
2022-09-06T11:05:39.713Z,26.52
2022-09-06T11:15:18.025Z,30.51
2022-09-06T11:18:18.618Z,30.70
2022-09-06T11:21:28.611Z,30.08
2022-09-06T11:24:58.796Z,30.13
2022-09-06T11:27:54.954Z,30.57
2022-09-06T11:34:35.042Z,29.60
2022-09-06T11:37:20.312Z,28.92
2022-09-06T11:40:28.819Z,28.44
2022-09-06T11:47:48.749Z,27.90
2022-09-06T11:50:21.979Z,27.33
2022-09-06T11:53:14.666Z,26.62
2022-09-06T11:56:04.865Z,26.04
2022-09-06T11:58:59.989Z,26.04
2022-09-06T12:02:23.749Z,26.16
2022-09-06T12:05:01.283Z,25.89
2022-09-06T12:07:32.168Z,25.54
2022-09-06T12:10:31.247Z,25.08
2022-09-06T12:21:07.966Z,25.11
2022-09-06T12:23:35.156Z,25.32
2022-09-06T12:34:24.308Z,25.77
2022-09-06T12:36:55.564Z,25.94
2022-09-06T12:39:23.322Z,26.20
2022-09-06T12:42:12.769Z,26.40
2022-09-06T12:44:49.531Z,26.65
2022-09-06T12:47:37.934Z,26.84
2022-09-06T12:58:14.181Z,27.26
2022-09-06T13:00:51.871Z,27.34
2022-09-06T13:03:27.791Z,27.43
2022-09-06T13:05:58.894Z,27.54
2022-09-06T13:08:49.532Z,27.65
2022-09-06T13:11:26.039Z,27.80
2022-09-06T13:13:55.398Z,28.01
2022-09-06T13:16:28.263Z,28.15
2022-09-06T13:19:10.222Z,28.00
2022-09-06T13:21:42.409Z,27.83
2022-09-06T13:36:29.897Z,28.12
2022-09-06T13:38:58.337Z,28.24
2022-09-06T13:41:25.517Z,28.18
2022-09-06T13:44:15.928Z,28.00
2022-09-06T13:46:52.584Z,27.83
2022-09-06T13:49:20.149Z,27.61
2022-09-06T13:51:47.384Z,27.36
2022-09-06T13:54:15.640Z,27.26
2022-09-06T13:56:43.642Z,27.32
2022-09-06T13:59:12.601Z,27.58
2022-09-06T14:09:49.719Z,27.03
2022-09-06T14:12:17.058Z,26.85
2022-09-06T14:14:44.538Z,26.69
2022-09-06T14:17:11.918Z,26.51
2022-09-06T14:19:43.568Z,26.38
2022-09-06T14:22:10.928Z,26.25
2022-09-06T14:28:49.578Z,25.92
2022-09-06T14:39:01.946Z,25.26
2022-09-06T14:41:29.506Z,25.17
2022-09-06T14:43:58.812Z,25.09
2022-09-06T14:46:28.669Z,25.02
2022-09-06T14:49:02.726Z,25.04
2022-09-06T14:51:31.321Z,25.20
2022-09-06T14:54:39.439Z,25.58
2022-09-06T15:05:15.892Z,25.72
2022-09-06T15:07:43.108Z,25.57
2022-09-06T15:14:27.911Z,25.16
2022-09-06T15:16:57.751Z,24.95
2022-09-06T15:19:27.448Z,24.81
2022-09-06T15:21:56.765Z,24.67
2022-09-06T15:24:24.610Z,24.42
2022-09-06T15:26:52.167Z,24.31
2022-09-06T15:29:19.500Z,24.13
2022-09-06T15:31:49.502Z,23.99
2022-09-06T15:34:22.522Z,23.86
2022-09-06T15:36:52.331Z,23.78
2022-09-06T15:39:20.148Z,23.81
2022-09-06T15:41:49.786Z,23.81
2022-09-06T15:44:19.786Z,23.80
2022-09-06T15:46:53.576Z,23.72
2022-09-06T15:49:28.031Z,23.66
2022-09-06T15:51:58.688Z,23.66
2022-09-06T15:54:25.983Z,23.60
2022-09-06T15:56:53.182Z,23.58
2022-09-06T15:59:20.460Z,23.55
2022-09-06T16:01:47.689Z,23.51
2022-09-06T16:04:15.024Z,23.47
2022-09-06T16:06:42.165Z,23.45
2022-09-06T16:09:13.294Z,23.38
2022-09-06T16:11:41.493Z,23.33
2022-09-06T16:14:12.657Z,23.26
2022-09-06T16:16:40.729Z,23.19
2022-09-06T16:19:09.153Z,23.10
2022-09-06T16:21:38.933Z,23.05
2022-09-06T16:24:09.419Z,23.00
2022-09-06T16:26:39.934Z,22.94
2022-09-06T16:29:10.933Z,22.87
2022-09-06T16:31:40.636Z,22.81
2022-09-06T16:34:09.593Z,22.75
2022-09-06T16:40:28.890Z,22.59
2022-09-06T16:42:56.481Z,22.55
2022-09-06T16:45:23.776Z,22.50
2022-09-06T16:47:51.122Z,22.50
2022-09-06T16:50:18.335Z,22.47
2022-09-06T16:52:45.719Z,22.42
2022-09-06T16:59:22.367Z,22.28
2022-09-06T17:01:49.642Z,22.22
2022-09-06T17:08:16.706Z,22.07
2022-09-06T17:10:43.929Z,22.07
2022-09-06T17:13:12.806Z,22.03
2022-09-06T17:15:41.835Z,21.99
2022-09-06T17:18:09.012Z,21.94
2022-09-06T17:20:36.223Z,21.85
2022-09-06T17:31:25.810Z,21.43
2022-09-06T17:33:53.921Z,21.37
2022-09-06T17:36:25.507Z,21.34
2022-09-06T17:38:59.184Z,21.31
2022-09-06T17:41:32.913Z,21.24
2022-09-06T17:44:00.748Z,21.16
2022-09-06T17:46:29.146Z,21.08
2022-09-06T17:48:57.191Z,21.08
2022-09-06T17:51:26.276Z,21.02
2022-09-06T17:53:57.080Z,21.01
2022-09-06T17:56:24.700Z,20.96
2022-09-06T17:59:03.650Z,20.91
2022-09-06T18:01:35.439Z,20.93
2022-09-06T18:04:07.720Z,20.89
2022-09-06T18:06:38.406Z,20.92
2022-09-06T18:09:10.890Z,20.89
2022-09-06T18:11:39.790Z,20.88
2022-09-06T18:14:14.394Z,20.81
2022-09-06T18:16:42.252Z,20.80
2022-09-06T18:19:09.741Z,20.77
2022-09-06T18:21:39.669Z,20.75
2022-09-06T18:24:10.246Z,20.70
2022-09-06T18:26:37.582Z,20.67
2022-09-06T18:29:05.753Z,20.63
2022-09-06T18:31:33.062Z,20.59
2022-09-06T18:34:00.326Z,20.55
2022-09-06T18:36:31.980Z,20.53
2022-09-06T18:39:02.287Z,20.46
2022-09-06T18:41:29.580Z,20.47
2022-09-06T18:43:57.354Z,20.45
2022-09-06T18:46:25.240Z,20.42
2022-09-06T18:48:52.618Z,20.42
2022-09-06T18:51:19.851Z,20.36
2022-09-06T18:53:47.320Z,20.33
2022-09-06T18:56:16.126Z,20.35
2022-09-06T18:58:43.426Z,20.28
2022-09-06T19:01:16.783Z,20.27
2022-09-06T19:03:44.807Z,20.25
2022-09-06T19:06:19.114Z,20.14
2022-09-06T19:08:47.900Z,20.16
2022-09-06T19:11:18.629Z,20.15
2022-09-06T19:13:50.864Z,20.10
2022-09-06T19:16:19.003Z,20.09
2022-09-06T19:18:46.427Z,20.06
2022-09-06T19:21:18.060Z,20.04
2022-09-06T19:23:56.274Z,20.02
2022-09-06T19:26:25.497Z,20.03
2022-09-06T19:29:06.354Z,20.00
2022-09-06T19:31:36.770Z,19.95
2022-09-06T19:34:05.835Z,19.91
2022-09-06T19:36:35.686Z,19.78
2022-09-06T19:39:08.130Z,19.76
2022-09-06T19:41:40.882Z,19.75
2022-09-06T19:44:08.100Z,19.74
2022-09-06T19:46:36.971Z,19.71
2022-09-06T19:49:05.717Z,19.62
2022-09-06T19:51:32.967Z,19.63
2022-09-06T19:54:00.499Z,19.65
2022-09-06T19:56:31.848Z,19.61
2022-09-06T19:59:03.526Z,19.56
2022-09-06T20:01:34.766Z,19.54
2022-09-06T20:04:04.741Z,19.50
2022-09-06T20:06:32.668Z,19.44
2022-09-06T20:09:02.206Z,19.42
2022-09-06T20:11:32.263Z,19.38
2022-09-06T20:14:00.510Z,19.36
2022-09-06T20:16:28.135Z,19.33
2022-09-06T20:18:56.934Z,19.30
2022-09-06T20:21:24.087Z,19.27
2022-09-06T20:23:54.399Z,19.23
2022-09-06T20:26:23.926Z,19.22
2022-09-06T20:29:03.150Z,19.15
2022-09-06T20:31:33.011Z,19.07
2022-09-06T20:34:02.476Z,19.04
2022-09-06T20:36:30.230Z,19.01
2022-09-06T20:38:57.747Z,19.02
2022-09-06T20:41:27.210Z,19.01
2022-09-06T20:43:58.178Z,19.03
2022-09-06T20:46:29.876Z,19.01
2022-09-06T20:48:59.553Z,19.00
2022-09-06T20:51:26.962Z,19.01
2022-09-06T20:53:59.593Z,19.00
2022-09-06T20:56:33.373Z,18.97
2022-09-06T21:06:50.385Z,18.75
2022-09-06T21:09:18.069Z,18.76
2022-09-06T21:15:55.924Z,18.62
2022-09-06T21:18:24.729Z,18.58
2022-09-06T21:24:41.549Z,18.48
2022-09-06T21:31:10.964Z,18.39
2022-09-06T21:33:47.903Z,18.39
2022-09-06T21:40:24.948Z,18.17
2022-09-06T21:42:52.954Z,18.20
2022-09-06T21:49:20.115Z,18.15
2022-09-06T21:51:47.262Z,18.16
2022-09-06T21:54:14.476Z,18.17
2022-09-06T22:00:52.084Z,18.09
2022-09-06T22:03:19.822Z,18.09
2022-09-06T22:05:47.128Z,18.06
2022-09-06T22:08:14.338Z,18.01
2022-09-06T22:14:41.370Z,17.91
2022-09-06T22:17:08.531Z,17.88
2022-09-06T22:19:35.753Z,17.86
2022-09-06T22:22:03.055Z,17.83
2022-09-06T22:29:11.319Z,17.63
2022-09-06T22:31:39.153Z,17.60
2022-09-06T22:34:07.366Z,17.62
2022-09-06T22:36:34.959Z,17.60
2022-09-06T22:39:02.305Z,17.55
2022-09-06T22:50:33.949Z,17.32
2022-09-06T22:53:01.401Z,17.31
2022-09-06T22:59:38.581Z,17.19
2022-09-06T23:02:05.888Z,17.21
2022-09-06T23:04:33.186Z,17.21
2022-09-06T23:07:00.390Z,17.19
2022-09-06T23:09:27.679Z,17.18
2022-09-06T23:11:55.361Z,17.17
2022-09-06T23:14:22.562Z,17.15
2022-09-06T23:20:49.365Z,17.11
2022-09-06T23:23:16.593Z,17.13
2022-09-06T23:29:53.465Z,17.08
2022-09-06T23:32:20.731Z,17.08
2022-09-06T23:34:47.997Z,17.07
2022-09-06T23:37:15.152Z,17.05
2022-09-06T23:48:16.460Z,17.01
2022-09-06T23:50:45.475Z,17.03
2022-09-06T23:53:15.497Z,17.05
2022-09-06T23:55:43.020Z,17.05
2022-09-06T23:58:10.344Z,17.02
